sensor_id;sensor_type;location;lat;lon;timestamp;P1;durP1;ratioP1;P2;durP2;ratioP2
61741;SDS011;47650;49.848;9.620;2023-05-02T00:00:03;11.45;;;9.98;;
61741;SDS011;47650;49.848;9.620;2023-05-02T00:02:30;11.18;;;10.18;;
61741;SDS011;47650;49.848;9.620;2023-05-02T00:04:55;10.73;;;9.73;;
61741;SDS011;47650;49.848;9.620;2023-05-02T00:07:20;12.52;;;10.80;;
61741;SDS011;47650;49.848;9.620;2023-05-02T00:09:46;11.05;;;9.68;;
61741;SDS011;47650;49.848;9.620;2023-05-02T00:12:14;13.85;;;11.32;;
61741;SDS011;47650;49.848;9.620;2023-05-02T00:14:40;12.35;;;10.25;;
61741;SDS011;47650;49.848;9.620;2023-05-02T00:17:05;11.40;;;10.30;;
61741;SDS011;47650;49.848;9.620;2023-05-02T00:19:30;13.27;;;10.52;;
61741;SDS011;47650;49.848;9.620;2023-05-02T00:21:57;10.52;;;9.40;;
61741;SDS011;47650;49.848;9.620;2023-05-02T00:24:22;9.60;;;8.50;;
61741;SDS011;47650;49.848;9.620;2023-05-02T00:26:47;12.43;;;9.60;;
61741;SDS011;47650;49.848;9.620;2023-05-02T00:29:15;10.50;;;9.60;;
61741;SDS011;47650;49.848;9.620;2023-05-02T00:31:41;10.52;;;9.48;;
61741;SDS011;47650;49.848;9.620;2023-05-02T00:34:06;10.57;;;9.50;;
61741;SDS011;47650;49.848;9.620;2023-05-02T00:36:31;12.57;;;9.93;;
61741;SDS011;47650;49.848;9.620;2023-05-02T00:38:57;11.20;;;10.10;;
61741;SDS011;47650;49.848;9.620;2023-05-02T00:41:22;11.52;;;9.70;;
61741;SDS011;47650;49.848;9.620;2023-05-02T00:43:49;14.32;;;10.55;;
61741;SDS011;47650;49.848;9.620;2023-05-02T00:46:16;11.23;;;9.32;;
61741;SDS011;47650;49.848;9.620;2023-05-02T00:48:41;9.98;;;9.00;;
61741;SDS011;47650;49.848;9.620;2023-05-02T00:51:09;9.95;;;9.05;;
61741;SDS011;47650;49.848;9.620;2023-05-02T00:53:38;10.00;;;9.10;;
61741;SDS011;47650;49.848;9.620;2023-05-02T00:56:05;10.75;;;9.73;;
61741;SDS011;47650;49.848;9.620;2023-05-02T00:58:33;8.90;;;8.10;;
61741;SDS011;47650;49.848;9.620;2023-05-02T01:09:41;9.27;;;7.95;;
61741;SDS011;47650;49.848;9.620;2023-05-02T01:12:15;8.80;;;8.00;;
61741;SDS011;47650;49.848;9.620;2023-05-02T01:15:15;9.25;;;8.30;;
61741;SDS011;47650;49.848;9.620;2023-05-02T01:17:44;9.13;;;8.23;;
61741;SDS011;47650;49.848;9.620;2023-05-02T01:20:16;10.77;;;8.82;;
61741;SDS011;47650;49.848;9.620;2023-05-02T01:22:48;8.65;;;7.85;;
61741;SDS011;47650;49.848;9.620;2023-05-02T01:30:19;8.05;;;7.25;;
61741;SDS011;47650;49.848;9.620;2023-05-02T01:32:56;8.98;;;8.02;;
61741;SDS011;47650;49.848;9.620;2023-05-02T01:35:23;10.77;;;7.53;;
61741;SDS011;47650;49.848;9.620;2023-05-02T01:37:50;9.35;;;8.52;;
61741;SDS011;47650;49.848;9.620;2023-05-02T01:40:18;8.50;;;7.60;;
61741;SDS011;47650;49.848;9.620;2023-05-02T01:42:46;8.55;;;7.65;;
61741;SDS011;47650;49.848;9.620;2023-05-02T01:45:15;10.43;;;8.45;;
61741;SDS011;47650;49.848;9.620;2023-05-02T01:47:42;9.32;;;7.55;;
61741;SDS011;47650;49.848;9.620;2023-05-02T01:52:48;10.30;;;7.60;;
61741;SDS011;47650;49.848;9.620;2023-05-02T01:55:17;8.23;;;7.40;;
61741;SDS011;47650;49.848;9.620;2023-05-02T01:57:47;7.78;;;6.90;;
61741;SDS011;47650;49.848;9.620;2023-05-02T02:00:20;9.93;;;8.45;;
61741;SDS011;47650;49.848;9.620;2023-05-02T02:02:47;9.38;;;7.40;;
61741;SDS011;47650;49.848;9.620;2023-05-02T02:05:19;9.15;;;8.25;;
61741;SDS011;47650;49.848;9.620;2023-05-02T02:07:48;7.90;;;7.20;;
61741;SDS011;47650;49.848;9.620;2023-05-02T02:10:15;7.53;;;6.82;;
61741;SDS011;47650;49.848;9.620;2023-05-02T02:12:41;8.80;;;7.57;;
61741;SDS011;47650;49.848;9.620;2023-05-02T02:17:42;10.38;;;7.72;;
61741;SDS011;47650;49.848;9.620;2023-05-02T02:20:19;7.90;;;7.10;;
61741;SDS011;47650;49.848;9.620;2023-05-02T02:22:46;9.48;;;7.00;;
61741;SDS011;47650;49.848;9.620;2023-05-02T02:25:13;9.35;;;7.65;;
61741;SDS011;47650;49.848;9.620;2023-05-02T02:27:40;13.57;;;8.40;;
61741;SDS011;47650;49.848;9.620;2023-05-02T02:30:09;8.25;;;7.55;;
61741;SDS011;47650;49.848;9.620;2023-05-02T02:32:35;8.40;;;7.60;;
61741;SDS011;47650;49.848;9.620;2023-05-02T02:35:01;7.60;;;6.85;;
61741;SDS011;47650;49.848;9.620;2023-05-02T02:37:31;8.55;;;7.60;;
61741;SDS011;47650;49.848;9.620;2023-05-02T02:40:33;8.02;;;7.30;;
61741;SDS011;47650;49.848;9.620;2023-05-02T02:43:26;8.30;;;7.18;;
61741;SDS011;47650;49.848;9.620;2023-05-02T02:46:23;8.48;;;7.00;;
61741;SDS011;47650;49.848;9.620;2023-05-02T02:52:29;9.68;;;8.38;;
61741;SDS011;47650;49.848;9.620;2023-05-02T02:55:12;8.32;;;7.40;;
61741;SDS011;47650;49.848;9.620;2023-05-02T03:00:52;8.65;;;7.85;;
61741;SDS011;47650;49.848;9.620;2023-05-02T03:03:27;8.52;;;7.43;;
61741;SDS011;47650;49.848;9.620;2023-05-02T03:05:55;9.70;;;8.25;;
61741;SDS011;47650;49.848;9.620;2023-05-02T03:08:21;9.02;;;8.13;;
61741;SDS011;47650;49.848;9.620;2023-05-02T03:10:48;11.40;;;8.13;;
61741;SDS011;47650;49.848;9.620;2023-05-02T03:13:16;8.25;;;7.55;;
61741;SDS011;47650;49.848;9.620;2023-05-02T03:18:23;8.57;;;7.72;;
61741;SDS011;47650;49.848;9.620;2023-05-02T03:20:51;8.73;;;7.47;;
61741;SDS011;47650;49.848;9.620;2023-05-02T03:23:17;9.65;;;8.65;;
61741;SDS011;47650;49.848;9.620;2023-05-02T03:25:43;11.25;;;9.32;;
61741;SDS011;47650;49.848;9.620;2023-05-02T03:28:08;8.57;;;7.68;;
61741;SDS011;47650;49.848;9.620;2023-05-02T03:30:39;8.45;;;7.65;;
61741;SDS011;47650;49.848;9.620;2023-05-02T03:33:05;10.35;;;7.63;;
61741;SDS011;47650;49.848;9.620;2023-05-02T03:35:32;8.63;;;7.82;;
61741;SDS011;47650;49.848;9.620;2023-05-02T03:38:05;9.65;;;7.63;;
61741;SDS011;47650;49.848;9.620;2023-05-02T03:40:32;11.55;;;7.47;;
61741;SDS011;47650;49.848;9.620;2023-05-02T03:42:57;7.50;;;6.80;;
61741;SDS011;47650;49.848;9.620;2023-05-02T03:45:33;9.38;;;7.75;;
61741;SDS011;47650;49.848;9.620;2023-05-02T03:47:58;7.45;;;6.75;;
61741;SDS011;47650;49.848;9.620;2023-05-02T03:50:23;7.82;;;6.90;;
61741;SDS011;47650;49.848;9.620;2023-05-02T03:52:49;8.18;;;7.47;;
61741;SDS011;47650;49.848;9.620;2023-05-02T03:55:16;9.38;;;7.95;;
61741;SDS011;47650;49.848;9.620;2023-05-02T03:57:42;8.70;;;7.38;;
61741;SDS011;47650;49.848;9.620;2023-05-02T04:00:08;10.00;;;7.40;;
61741;SDS011;47650;49.848;9.620;2023-05-02T04:02:34;8.32;;;7.30;;
61741;SDS011;47650;49.848;9.620;2023-05-02T04:05:02;10.02;;;8.40;;
61741;SDS011;47650;49.848;9.620;2023-05-02T04:07:32;9.35;;;8.02;;
61741;SDS011;47650;49.848;9.620;2023-05-02T04:09:57;8.82;;;7.97;;
61741;SDS011;47650;49.848;9.620;2023-05-02T04:12:22;8.25;;;7.45;;
61741;SDS011;47650;49.848;9.620;2023-05-02T04:14:50;9.07;;;8.27;;
61741;SDS011;47650;49.848;9.620;2023-05-02T04:17:16;8.52;;;7.72;;
61741;SDS011;47650;49.848;9.620;2023-05-02T04:19:42;8.68;;;7.88;;
61741;SDS011;47650;49.848;9.620;2023-05-02T04:22:08;8.73;;;7.93;;
61741;SDS011;47650;49.848;9.620;2023-05-02T04:24:34;8.95;;;8.15;;
61741;SDS011;47650;49.848;9.620;2023-05-02T04:26:59;11.85;;;9.13;;
61741;SDS011;47650;49.848;9.620;2023-05-02T04:29:37;9.20;;;8.40;;
61741;SDS011;47650;49.848;9.620;2023-05-02T04:32:04;9.80;;;8.82;;
61741;SDS011;47650;49.848;9.620;2023-05-02T04:37:01;9.38;;;7.03;;
61741;SDS011;47650;49.848;9.620;2023-05-02T04:39:26;8.98;;;7.90;;
61741;SDS011;47650;49.848;9.620;2023-05-02T04:41:59;9.85;;;8.63;;
61741;SDS011;47650;49.848;9.620;2023-05-02T04:44:31;9.65;;;6.82;;
61741;SDS011;47650;49.848;9.620;2023-05-02T04:46:58;8.43;;;7.67;;
61741;SDS011;47650;49.848;9.620;2023-05-02T04:51:57;9.45;;;7.15;;
61741;SDS011;47650;49.848;9.620;2023-05-02T04:54:25;8.18;;;6.75;;
61741;SDS011;47650;49.848;9.620;2023-05-02T04:56:52;8.00;;;6.57;;
61741;SDS011;47650;49.848;9.620;2023-05-02T04:59:32;9.05;;;7.88;;
61741;SDS011;47650;49.848;9.620;2023-05-02T05:01:57;8.15;;;7.45;;
61741;SDS011;47650;49.848;9.620;2023-05-02T05:04:23;8.68;;;7.57;;
61741;SDS011;47650;49.848;9.620;2023-05-02T05:06:50;9.25;;;7.75;;
61741;SDS011;47650;49.848;9.620;2023-05-02T05:09:17;9.00;;;8.10;;
61741;SDS011;47650;49.848;9.620;2023-05-02T05:11:42;8.82;;;7.28;;
61741;SDS011;47650;49.848;9.620;2023-05-02T05:14:10;8.65;;;6.97;;
61741;SDS011;47650;49.848;9.620;2023-05-02T05:16:35;8.60;;;7.82;;
61741;SDS011;47650;49.848;9.620;2023-05-02T05:19:08;8.02;;;7.22;;
61741;SDS011;47650;49.848;9.620;2023-05-02T05:21:33;11.75;;;8.00;;
61741;SDS011;47650;49.848;9.620;2023-05-02T05:23:58;14.57;;;11.98;;
61741;SDS011;47650;49.848;9.620;2023-05-02T05:26:27;12.85;;;9.93;;
61741;SDS011;47650;49.848;9.620;2023-05-02T05:28:52;10.90;;;8.80;;
61741;SDS011;47650;49.848;9.620;2023-05-02T05:31:18;15.13;;;7.93;;
61741;SDS011;47650;49.848;9.620;2023-05-02T05:33:44;11.88;;;7.50;;
61741;SDS011;47650;49.848;9.620;2023-05-02T05:36:13;9.82;;;8.52;;
61741;SDS011;47650;49.848;9.620;2023-05-02T05:38:41;8.38;;;7.57;;
61741;SDS011;47650;49.848;9.620;2023-05-02T05:41:08;8.00;;;7.20;;
61741;SDS011;47650;49.848;9.620;2023-05-02T05:43:35;8.52;;;7.00;;
61741;SDS011;47650;49.848;9.620;2023-05-02T05:46:00;9.45;;;6.68;;
61741;SDS011;47650;49.848;9.620;2023-05-02T05:48:32;8.38;;;7.53;;
61741;SDS011;47650;49.848;9.620;2023-05-02T05:51:08;8.90;;;6.70;;
61741;SDS011;47650;49.848;9.620;2023-05-02T05:53:36;7.65;;;6.82;;
61741;SDS011;47650;49.848;9.620;2023-05-02T05:56:09;8.02;;;6.82;;
61741;SDS011;47650;49.848;9.620;2023-05-02T05:58:39;8.25;;;6.45;;
61741;SDS011;47650;49.848;9.620;2023-05-02T06:01:08;8.18;;;6.93;;
61741;SDS011;47650;49.848;9.620;2023-05-02T06:03:33;6.47;;;5.88;;
61741;SDS011;47650;49.848;9.620;2023-05-02T06:05:58;7.82;;;6.43;;
61741;SDS011;47650;49.848;9.620;2023-05-02T06:08:25;6.28;;;5.70;;
61741;SDS011;47650;49.848;9.620;2023-05-02T06:10:58;6.72;;;6.10;;
61741;SDS011;47650;49.848;9.620;2023-05-02T06:13:24;8.85;;;7.25;;
61741;SDS011;47650;49.848;9.620;2023-05-02T06:15:50;8.38;;;7.57;;
61741;SDS011;47650;49.848;9.620;2023-05-02T06:18:15;8.35;;;6.75;;
61741;SDS011;47650;49.848;9.620;2023-05-02T06:20:40;9.82;;;8.93;;
61741;SDS011;47650;49.848;9.620;2023-05-02T06:23:06;8.90;;;8.10;;
61741;SDS011;47650;49.848;9.620;2023-05-02T06:25:35;9.48;;;8.63;;
61741;SDS011;47650;49.848;9.620;2023-05-02T06:28:07;11.90;;;10.70;;
61741;SDS011;47650;49.848;9.620;2023-05-02T06:30:33;11.40;;;10.30;;
61741;SDS011;47650;49.848;9.620;2023-05-02T06:32:58;12.13;;;10.93;;
61741;SDS011;47650;49.848;9.620;2023-05-02T06:35:24;12.57;;;11.27;;
61741;SDS011;47650;49.848;9.620;2023-05-02T06:37:52;11.70;;;10.38;;
61741;SDS011;47650;49.848;9.620;2023-05-02T06:40:17;13.57;;;12.27;;
61741;SDS011;47650;49.848;9.620;2023-05-02T06:42:42;12.98;;;11.68;;
61741;SDS011;47650;49.848;9.620;2023-05-02T06:45:08;12.98;;;11.68;;
61741;SDS011;47650;49.848;9.620;2023-05-02T06:47:33;13.77;;;12.38;;
61741;SDS011;47650;49.848;9.620;2023-05-02T06:50:04;12.65;;;11.35;;
61741;SDS011;47650;49.848;9.620;2023-05-02T06:52:30;13.55;;;12.27;;
61741;SDS011;47650;49.848;9.620;2023-05-02T06:54:56;12.18;;;10.90;;
61741;SDS011;47650;49.848;9.620;2023-05-02T06:57:23;15.27;;;12.25;;
61741;SDS011;47650;49.848;9.620;2023-05-02T06:59:49;12.73;;;11.45;;
61741;SDS011;47650;49.848;9.620;2023-05-02T07:02:14;12.68;;;11.48;;
61741;SDS011;47650;49.848;9.620;2023-05-02T07:04:39;14.13;;;12.68;;
61741;SDS011;47650;49.848;9.620;2023-05-02T07:07:07;13.77;;;12.48;;
61741;SDS011;47650;49.848;9.620;2023-05-02T07:09:32;14.88;;;13.50;;
61741;SDS011;47650;49.848;9.620;2023-05-02T07:11:57;15.07;;;13.52;;
61741;SDS011;47650;49.848;9.620;2023-05-02T07:14:24;15.32;;;13.82;;
61741;SDS011;47650;49.848;9.620;2023-05-02T07:16:52;14.60;;;13.20;;
61741;SDS011;47650;49.848;9.620;2023-05-02T07:19:19;15.25;;;13.75;;
61741;SDS011;47650;49.848;9.620;2023-05-02T07:21:45;15.93;;;13.18;;
61741;SDS011;47650;49.848;9.620;2023-05-02T07:24:16;12.57;;;11.27;;
61741;SDS011;47650;49.848;9.620;2023-05-02T07:26:42;13.80;;;12.45;;
61741;SDS011;47650;49.848;9.620;2023-05-02T07:29:08;12.40;;;11.10;;
61741;SDS011;47650;49.848;9.620;2023-05-02T07:31:33;12.88;;;11.55;;
61741;SDS011;47650;49.848;9.620;2023-05-02T07:33:58;12.57;;;11.43;;
61741;SDS011;47650;49.848;9.620;2023-05-02T07:36:24;11.60;;;10.27;;
61741;SDS011;47650;49.848;9.620;2023-05-02T07:38:50;12.63;;;11.30;;
61741;SDS011;47650;49.848;9.620;2023-05-02T07:41:15;12.25;;;10.95;;
61741;SDS011;47650;49.848;9.620;2023-05-02T07:43:42;12.60;;;11.30;;
61741;SDS011;47650;49.848;9.620;2023-05-02T07:46:07;11.60;;;10.43;;
61741;SDS011;47650;49.848;9.620;2023-05-02T07:48:33;14.38;;;10.85;;
61741;SDS011;47650;49.848;9.620;2023-05-02T07:51:06;10.73;;;9.60;;
61741;SDS011;47650;49.848;9.620;2023-05-02T07:53:33;11.38;;;9.43;;
61741;SDS011;47650;49.848;9.620;2023-05-02T07:56:00;11.13;;;10.13;;
61741;SDS011;47650;49.848;9.620;2023-05-02T07:58:33;10.80;;;9.70;;
61741;SDS011;47650;49.848;9.620;2023-05-02T08:01:00;10.60;;;9.65;;
61741;SDS011;47650;49.848;9.620;2023-05-02T08:03:25;11.70;;;10.57;;
61741;SDS011;47650;49.848;9.620;2023-05-02T08:05:51;12.32;;;10.02;;
61741;SDS011;47650;49.848;9.620;2023-05-02T08:08:16;11.52;;;10.38;;
61741;SDS011;47650;49.848;9.620;2023-05-02T08:10:42;10.30;;;9.30;;
61741;SDS011;47650;49.848;9.620;2023-05-02T08:13:10;9.80;;;8.80;;
61741;SDS011;47650;49.848;9.620;2023-05-02T08:15:38;10.73;;;9.73;;
61741;SDS011;47650;49.848;9.620;2023-05-02T08:18:03;11.00;;;9.90;;
61741;SDS011;47650;49.848;9.620;2023-05-02T08:20:29;9.23;;;7.78;;
61741;SDS011;47650;49.848;9.620;2023-05-02T08:22:55;9.00;;;7.80;;
61741;SDS011;47650;49.848;9.620;2023-05-02T08:25:20;9.70;;;8.70;;
61741;SDS011;47650;49.848;9.620;2023-05-02T08:27:46;8.90;;;7.35;;
61741;SDS011;47650;49.848;9.620;2023-05-02T08:30:11;8.20;;;7.35;;
61741;SDS011;47650;49.848;9.620;2023-05-02T08:32:38;9.27;;;8.38;;
61741;SDS011;47650;49.848;9.620;2023-05-02T08:35:03;10.10;;;8.73;;
61741;SDS011;47650;49.848;9.620;2023-05-02T08:37:40;10.90;;;9.90;;
61741;SDS011;47650;49.848;9.620;2023-05-02T08:40:10;9.27;;;8.35;;
61741;SDS011;47650;49.848;9.620;2023-05-02T08:42:36;10.20;;;8.73;;
61741;SDS011;47650;49.848;9.620;2023-05-02T08:45:05;9.32;;;8.20;;
61741;SDS011;47650;49.848;9.620;2023-05-02T08:47:32;8.25;;;7.43;;
61741;SDS011;47650;49.848;9.620;2023-05-02T08:49:59;7.35;;;6.65;;
61741;SDS011;47650;49.848;9.620;2023-05-02T08:52:27;9.90;;;8.88;;
61741;SDS011;47650;49.848;9.620;2023-05-02T08:54:57;8.63;;;7.75;;
61741;SDS011;47650;49.848;9.620;2023-05-02T08:57:25;8.00;;;7.20;;
61741;SDS011;47650;49.848;9.620;2023-05-02T08:59:53;8.57;;;7.70;;
61741;SDS011;47650;49.848;9.620;2023-05-02T09:02:22;7.95;;;7.10;;
61741;SDS011;47650;49.848;9.620;2023-05-02T09:05:06;7.55;;;6.85;;
61741;SDS011;47650;49.848;9.620;2023-05-02T09:07:46;7.93;;;7.22;;
61741;SDS011;47650;49.848;9.620;2023-05-02T09:10:13;7.40;;;6.65;;
61741;SDS011;47650;49.848;9.620;2023-05-02T09:12:40;10.32;;;7.18;;
61741;SDS011;47650;49.848;9.620;2023-05-02T09:15:13;7.45;;;6.70;;
61741;SDS011;47650;49.848;9.620;2023-05-02T09:17:47;7.88;;;6.90;;
61741;SDS011;47650;49.848;9.620;2023-05-02T09:20:14;7.38;;;6.50;;
61741;SDS011;47650;49.848;9.620;2023-05-02T09:22:47;7.75;;;6.95;;
61741;SDS011;47650;49.848;9.620;2023-05-02T09:25:15;6.85;;;6.15;;
61741;SDS011;47650;49.848;9.620;2023-05-02T09:27:53;9.45;;;6.45;;
61741;SDS011;47650;49.848;9.620;2023-05-02T09:30:21;7.22;;;6.53;;
61741;SDS011;47650;49.848;9.620;2023-05-02T09:32:48;6.95;;;6.28;;
61741;SDS011;47650;49.848;9.620;2023-05-02T09:35:20;6.78;;;6.05;;
61741;SDS011;47650;49.848;9.620;2023-05-02T09:37:57;7.25;;;5.53;;
61741;SDS011;47650;49.848;9.620;2023-05-02T09:40:22;5.70;;;5.18;;
61741;SDS011;47650;49.848;9.620;2023-05-02T09:42:49;6.35;;;5.72;;
61741;SDS011;47650;49.848;9.620;2023-05-02T09:45:19;9.82;;;7.28;;
61741;SDS011;47650;49.848;9.620;2023-05-02T09:47:45;8.10;;;7.13;;
61741;SDS011;47650;49.848;9.620;2023-05-02T09:50:11;12.65;;;8.07;;
61741;SDS011;47650;49.848;9.620;2023-05-02T09:53:05;10.07;;;7.65;;
61741;SDS011;47650;49.848;9.620;2023-05-02T09:55:33;7.40;;;6.68;;
61741;SDS011;47650;49.848;9.620;2023-05-02T09:57:59;8.02;;;7.22;;
61741;SDS011;47650;49.848;9.620;2023-05-02T10:00:38;4.90;;;4.40;;
61741;SDS011;47650;49.848;9.620;2023-05-02T10:03:07;7.32;;;6.63;;
61741;SDS011;47650;49.848;9.620;2023-05-02T10:05:37;7.47;;;6.28;;
61741;SDS011;47650;49.848;9.620;2023-05-02T10:08:04;7.20;;;6.50;;
61741;SDS011;47650;49.848;9.620;2023-05-02T10:10:31;7.65;;;6.97;;
61741;SDS011;47650;49.848;9.620;2023-05-02T10:13:02;7.22;;;6.53;;
61741;SDS011;47650;49.848;9.620;2023-05-02T10:15:28;7.32;;;6.63;;
61741;SDS011;47650;49.848;9.620;2023-05-02T10:17:55;7.45;;;6.72;;
61741;SDS011;47650;49.848;9.620;2023-05-02T10:20:29;9.43;;;6.90;;
61741;SDS011;47650;49.848;9.620;2023-05-02T10:22:59;6.38;;;5.53;;
61741;SDS011;47650;49.848;9.620;2023-05-02T10:25:27;7.45;;;6.85;;
61741;SDS011;47650;49.848;9.620;2023-05-02T10:27:55;6.40;;;5.90;;
61741;SDS011;47650;49.848;9.620;2023-05-02T10:30:23;6.47;;;5.97;;
61741;SDS011;47650;49.848;9.620;2023-05-02T10:32:50;5.88;;;5.25;;
61741;SDS011;47650;49.848;9.620;2023-05-02T10:35:17;4.57;;;3.92;;
61741;SDS011;47650;49.848;9.620;2023-05-02T10:37:43;4.20;;;3.72;;
61741;SDS011;47650;49.848;9.620;2023-05-02T10:40:10;6.28;;;5.78;;
61741;SDS011;47650;49.848;9.620;2023-05-02T10:42:37;5.45;;;4.95;;
61741;SDS011;47650;49.848;9.620;2023-05-02T10:45:11;8.45;;;5.55;;
61741;SDS011;47650;49.848;9.620;2023-05-02T10:50:46;6.95;;;6.25;;
61741;SDS011;47650;49.848;9.620;2023-05-02T10:53:26;6.75;;;5.90;;
61741;SDS011;47650;49.848;9.620;2023-05-02T10:58:47;7.15;;;6.55;;
61741;SDS011;47650;49.848;9.620;2023-05-02T11:03:58;5.65;;;5.15;;
61741;SDS011;47650;49.848;9.620;2023-05-02T11:06:27;5.15;;;4.65;;
61741;SDS011;47650;49.848;9.620;2023-05-02T11:09:28;5.95;;;5.45;;
61741;SDS011;47650;49.848;9.620;2023-05-02T11:11:46;5.38;;;4.88;;
61741;SDS011;47650;49.848;9.620;2023-05-02T11:19:21;5.15;;;3.78;;
61741;SDS011;47650;49.848;9.620;2023-05-02T11:21:47;4.05;;;3.63;;
61741;SDS011;47650;49.848;9.620;2023-05-02T11:33:09;4.13;;;3.63;;
61741;SDS011;47650;49.848;9.620;2023-05-02T11:35:20;3.85;;;3.55;;
61741;SDS011;47650;49.848;9.620;2023-05-02T11:40:24;3.97;;;3.67;;
61741;SDS011;47650;49.848;9.620;2023-05-02T11:42:51;4.25;;;3.85;;
61741;SDS011;47650;49.848;9.620;2023-05-02T11:45:18;6.00;;;3.72;;
61741;SDS011;47650;49.848;9.620;2023-05-02T11:47:45;4.90;;;3.60;;
61741;SDS011;47650;49.848;9.620;2023-05-02T11:50:13;3.10;;;2.80;;
61741;SDS011;47650;49.848;9.620;2023-05-02T11:52:40;3.70;;;2.90;;
61741;SDS011;47650;49.848;9.620;2023-05-02T11:55:07;3.83;;;3.10;;
61741;SDS011;47650;49.848;9.620;2023-05-02T11:57:36;3.17;;;2.88;;
61741;SDS011;47650;49.848;9.620;2023-05-02T12:00:02;3.53;;;3.08;;
61741;SDS011;47650;49.848;9.620;2023-05-02T12:02:42;3.42;;;3.08;;
61741;SDS011;47650;49.848;9.620;2023-05-02T12:05:10;3.03;;;2.83;;
61741;SDS011;47650;49.848;9.620;2023-05-02T12:10:03;3.17;;;2.88;;
61741;SDS011;47650;49.848;9.620;2023-05-02T12:12:29;5.10;;;3.00;;
61741;SDS011;47650;49.848;9.620;2023-05-02T12:14:56;3.08;;;2.78;;
61741;SDS011;47650;49.848;9.620;2023-05-02T12:17:27;4.20;;;2.92;;
61741;SDS011;47650;49.848;9.620;2023-05-02T12:19:52;3.78;;;3.33;;
61741;SDS011;47650;49.848;9.620;2023-05-02T12:22:17;3.50;;;3.13;;
61741;SDS011;47650;49.848;9.620;2023-05-02T12:24:43;4.47;;;3.03;;
61741;SDS011;47650;49.848;9.620;2023-05-02T12:27:11;2.97;;;2.78;;
61741;SDS011;47650;49.848;9.620;2023-05-02T12:29:41;2.47;;;2.25;;
61741;SDS011;47650;49.848;9.620;2023-05-02T12:32:14;3.08;;;2.45;;
61741;SDS011;47650;49.848;9.620;2023-05-02T12:34:40;2.87;;;2.60;;
61741;SDS011;47650;49.848;9.620;2023-05-02T12:37:08;3.78;;;2.45;;
61741;SDS011;47650;49.848;9.620;2023-05-02T12:39:37;5.57;;;2.90;;
61741;SDS011;47650;49.848;9.620;2023-05-02T12:42:13;5.30;;;2.80;;
61741;SDS011;47650;49.848;9.620;2023-05-02T12:44:40;3.10;;;2.80;;
61741;SDS011;47650;49.848;9.620;2023-05-02T12:47:10;3.22;;;2.90;;
61741;SDS011;47650;49.848;9.620;2023-05-02T12:52:16;3.80;;;2.53;;
61741;SDS011;47650;49.848;9.620;2023-05-02T12:54:42;3.15;;;2.72;;
61741;SDS011;47650;49.848;9.620;2023-05-02T12:57:07;3.47;;;2.97;;
61741;SDS011;47650;49.848;9.620;2023-05-02T12:59:43;2.95;;;2.30;;
61741;SDS011;47650;49.848;9.620;2023-05-02T13:02:12;3.15;;;2.20;;
61741;SDS011;47650;49.848;9.620;2023-05-02T13:04:38;2.60;;;2.40;;
61741;SDS011;47650;49.848;9.620;2023-05-02T13:07:05;2.10;;;1.90;;
61741;SDS011;47650;49.848;9.620;2023-05-02T13:09:31;2.20;;;2.00;;
61741;SDS011;47650;49.848;9.620;2023-05-02T13:11:57;2.55;;;1.95;;
61741;SDS011;47650;49.848;9.620;2023-05-02T13:14:23;1.80;;;1.65;;
61741;SDS011;47650;49.848;9.620;2023-05-02T13:16:49;2.17;;;1.60;;
61741;SDS011;47650;49.848;9.620;2023-05-02T13:19:17;3.05;;;1.65;;
61741;SDS011;47650;49.848;9.620;2023-05-02T13:21:43;2.20;;;2.00;;
61741;SDS011;47650;49.848;9.620;2023-05-02T13:24:08;2.72;;;2.00;;
61741;SDS011;47650;49.848;9.620;2023-05-02T13:26:35;2.78;;;2.00;;
61741;SDS011;47650;49.848;9.620;2023-05-02T13:29:00;5.35;;;1.70;;
61741;SDS011;47650;49.848;9.620;2023-05-02T13:31:26;2.45;;;2.00;;
61741;SDS011;47650;49.848;9.620;2023-05-02T13:33:51;2.55;;;1.70;;
61741;SDS011;47650;49.848;9.620;2023-05-02T13:36:16;2.10;;;2.00;;
61741;SDS011;47650;49.848;9.620;2023-05-02T13:38:42;4.05;;;2.10;;
61741;SDS011;47650;49.848;9.620;2023-05-02T13:41:09;3.08;;;2.17;;
61741;SDS011;47650;49.848;9.620;2023-05-02T13:43:36;2.00;;;1.80;;
61741;SDS011;47650;49.848;9.620;2023-05-02T13:46:01;4.00;;;1.80;;
61741;SDS011;47650;49.848;9.620;2023-05-02T13:48:28;2.38;;;2.08;;
61741;SDS011;47650;49.848;9.620;2023-05-02T13:50:55;2.03;;;1.80;;
61741;SDS011;47650;49.848;9.620;2023-05-02T13:53:20;2.75;;;2.15;;
61741;SDS011;47650;49.848;9.620;2023-05-02T13:55:47;1.90;;;1.80;;
61741;SDS011;47650;49.848;9.620;2023-05-02T13:58:12;2.40;;;2.20;;
61741;SDS011;47650;49.848;9.620;2023-05-02T14:00:38;2.27;;;2.07;;
61741;SDS011;47650;49.848;9.620;2023-05-02T14:03:03;2.40;;;2.20;;
61741;SDS011;47650;49.848;9.620;2023-05-02T14:05:30;2.50;;;2.30;;
61741;SDS011;47650;49.848;9.620;2023-05-02T14:07:55;2.47;;;2.22;;
61741;SDS011;47650;49.848;9.620;2023-05-02T14:10:20;3.07;;;2.40;;
61741;SDS011;47650;49.848;9.620;2023-05-02T14:12:45;2.87;;;2.33;;
61741;SDS011;47650;49.848;9.620;2023-05-02T14:15:11;3.33;;;2.78;;
61741;SDS011;47650;49.848;9.620;2023-05-02T14:17:36;3.67;;;2.88;;
61741;SDS011;47650;49.848;9.620;2023-05-02T14:20:03;3.63;;;2.60;;
61741;SDS011;47650;49.848;9.620;2023-05-02T14:22:32;2.95;;;2.65;;
61741;SDS011;47650;49.848;9.620;2023-05-02T14:24:57;8.90;;;3.53;;
61741;SDS011;47650;49.848;9.620;2023-05-02T14:27:23;4.00;;;2.60;;
61741;SDS011;47650;49.848;9.620;2023-05-02T14:29:54;4.10;;;2.85;;
61741;SDS011;47650;49.848;9.620;2023-05-02T14:32:25;4.40;;;3.25;;
61741;SDS011;47650;49.848;9.620;2023-05-02T14:34:50;3.88;;;2.60;;
61741;SDS011;47650;49.848;9.620;2023-05-02T14:37:17;4.00;;;2.78;;
61741;SDS011;47650;49.848;9.620;2023-05-02T14:39:43;3.67;;;2.65;;
61741;SDS011;47650;49.848;9.620;2023-05-02T14:42:09;2.72;;;2.47;;
61741;SDS011;47650;49.848;9.620;2023-05-02T14:44:35;3.60;;;2.45;;
61741;SDS011;47650;49.848;9.620;2023-05-02T14:47:00;2.63;;;2.42;;
61741;SDS011;47650;49.848;9.620;2023-05-02T14:49:26;2.35;;;2.15;;
61741;SDS011;47650;49.848;9.620;2023-05-02T14:51:53;3.20;;;2.10;;
61741;SDS011;47650;49.848;9.620;2023-05-02T14:54:18;3.40;;;2.70;;
61741;SDS011;47650;49.848;9.620;2023-05-02T14:56:45;2.72;;;2.53;;
61741;SDS011;47650;49.848;9.620;2023-05-02T14:59:11;3.38;;;2.35;;
61741;SDS011;47650;49.848;9.620;2023-05-02T15:01:36;3.95;;;2.92;;
61741;SDS011;47650;49.848;9.620;2023-05-02T15:04:01;3.40;;;2.45;;
61741;SDS011;47650;49.848;9.620;2023-05-02T15:06:28;3.88;;;2.67;;
61741;SDS011;47650;49.848;9.620;2023-05-02T15:08:55;2.33;;;2.13;;
61741;SDS011;47650;49.848;9.620;2023-05-02T15:11:21;3.17;;;1.90;;
61741;SDS011;47650;49.848;9.620;2023-05-02T15:13:46;2.08;;;1.90;;
61741;SDS011;47650;49.848;9.620;2023-05-02T15:16:12;2.00;;;1.80;;
61741;SDS011;47650;49.848;9.620;2023-05-02T15:18:37;2.20;;;2.00;;
61741;SDS011;47650;49.848;9.620;2023-05-02T15:21:04;1.95;;;1.60;;
61741;SDS011;47650;49.848;9.620;2023-05-02T15:23:29;1.85;;;1.50;;
61741;SDS011;47650;49.848;9.620;2023-05-02T15:25:56;2.03;;;1.60;;
61741;SDS011;47650;49.848;9.620;2023-05-02T15:28:21;1.70;;;1.48;;
61741;SDS011;47650;49.848;9.620;2023-05-02T15:30:47;1.60;;;1.50;;
61741;SDS011;47650;49.848;9.620;2023-05-02T15:33:13;1.40;;;1.30;;
61741;SDS011;47650;49.848;9.620;2023-05-02T15:35:38;1.90;;;1.50;;
61741;SDS011;47650;49.848;9.620;2023-05-02T15:38:04;1.80;;;1.55;;
61741;SDS011;47650;49.848;9.620;2023-05-02T15:40:31;2.65;;;1.38;;
61741;SDS011;47650;49.848;9.620;2023-05-02T15:42:56;1.43;;;1.33;;
61741;SDS011;47650;49.848;9.620;2023-05-02T15:45:28;1.88;;;1.10;;
61741;SDS011;47650;49.848;9.620;2023-05-02T15:47:53;1.50;;;1.40;;
61741;SDS011;47650;49.848;9.620;2023-05-02T15:50:18;1.93;;;1.50;;